Time;durP1;ratioP1;P1;durP2;ratioP2;P2;SDS_P1;SDS_P2;PMS_P1;PMS_P2;Temp;Humidity;BMP_temperature;BMP_pressure;BME280_temperature;BME280_humidity;BME280_pressure;Samples;Min_cycle;Max_cycle;Signal;HPM_P1;HPM_P2
2021/07/29 00:02:10;;;;;;;6.13;1.10;;;;;;;;;;4874441;28;20196;-73
2021/07/29 00:04:52;;;;;;;14.43;2.37;;;;;;;;;;4874773;28;20296;-73
2021/07/29 00:07:33;;;;;;;5.27;1.07;;;;;;;;;;4867118;28;20701;-72
2021/07/29 00:10:14;;;;;;;7.50;1.33;;;;;;;;;;4873851;28;20187;-71
2021/07/29 00:12:56;;;;;;;8.03;1.40;;;;;;;;;;4859454;28;20191;-73
2021/07/29 00:15:39;;;;;;;4.63;0.90;;;20.00;55.20;;;;;;4869988;28;20175;-73
2021/07/29 00:21:19;;;;;;;8.20;1.50;;;;;;;;;;4878318;28;20184;-73
2021/07/29 00:24:00;;;;;;;10.03;1.80;;;;;;;;;;4878050;28;20290;-73
2021/07/29 00:26:42;;;;;;;6.23;1.10;;;;;;;;;;4871647;28;20262;-73
2021/07/29 00:29:23;;;;;;;8.10;1.50;;;;;;;;;;4873537;28;20196;-75
2021/07/29 00:32:07;;;;;;;10.87;1.90;;;19.90;55.80;;;;;;4877977;28;20634;-74
2021/07/29 00:34:48;;;;;;;5.00;1.00;;;;;;;;;;4872734;28;20259;-75
2021/07/29 00:37:29;;;;;;;5.20;0.93;;;;;;;;;;4877411;28;20629;-72
2021/07/29 00:40:11;;;;;;;6.03;1.10;;;19.90;60.00;;;;;;4877379;28;20191;-72
2021/07/29 00:42:53;;;;;;;12.27;2.07;;;;;;;;;;4878242;28;20196;-78
2021/07/29 00:45:34;;;;;;;7.53;1.30;;;;;;;;;;4870993;28;20185;-72
2021/07/29 00:48:19;;;;;;;10.27;1.83;;;19.90;64.50;;;;;;4876292;28;20211;-83
2021/07/29 00:51:01;;;;;;;11.63;2.07;;;;;;;;;;4878494;28;20183;-84
2021/07/29 00:53:42;;;;;;;5.93;1.07;;;;;;;;;;4882674;28;20559;-74
2021/07/29 00:56:23;;;;;;;13.00;2.27;;;;;;;;;;4877859;28;20216;-76
2021/07/29 00:59:04;;;;;;;11.27;1.97;;;;;;;;;;4877124;28;20187;-82
2021/07/29 01:01:45;;;;;;;4.10;0.80;;;;;;;;;;4871392;28;20524;-84
2021/07/29 01:04:28;;;;;;;6.70;1.27;;;19.70;63.60;;;;;;4870854;28;20220;-77
2021/07/29 01:07:09;;;;;;;4.63;0.93;;;;;;;;;;4878281;28;20708;-74
2021/07/29 01:09:50;;;;;;;7.60;1.40;;;;;;;;;;4874801;28;20182;-79
2021/07/29 01:12:32;;;;;;;5.50;1.03;;;;;;;;;;4877762;28;20208;-80
2021/07/29 01:15:13;;;;;;;7.00;1.20;;;;;;;;;;4868823;28;20184;-87
2021/07/29 01:18:00;;;;;;;11.10;1.90;;;19.50;62.30;;;;;;4878233;28;20519;-76
2021/07/29 01:20:42;;;;;;;5.80;1.03;;;19.50;62.50;;;;;;4870494;28;20517;-72
2021/07/29 01:23:23;;;;;;;6.00;1.07;;;;;;;;;;4878326;28;20362;-73
2021/07/29 01:26:04;;;;;;;12.03;2.10;;;;;;;;;;4875339;28;20262;-72
2021/07/29 01:28:45;;;;;;;12.77;2.30;;;;;;;;;;4875799;28;20963;-72
2021/07/29 01:31:27;;;;;;;7.87;1.50;;;;;;;;;;4875374;28;20183;-73
2021/07/29 01:34:08;;;;;;;6.20;1.20;;;;;;;;;;4876460;28;20191;-74
2021/07/29 01:36:51;;;;;;;4.50;0.93;;;19.30;60.20;;;;;;4876610;28;20185;-72
2021/07/29 01:39:32;;;;;;;4.63;0.90;;;;;;;;;;4869445;28;20641;-74
2021/07/29 01:42:13;;;;;;;6.73;1.30;;;;;;;;;;4876300;28;20273;-74
2021/07/29 01:44:54;;;;;;;8.60;1.53;;;;;;;;;;4876618;28;20203;-72
2021/07/29 01:47:35;;;;;;;7.60;1.43;;;;;;;;;;4873883;28;20169;-72
2021/07/29 01:50:17;;;;;;;10.57;1.90;;;;;;;;;;4875731;28;20249;-73
2021/07/29 01:52:59;;;;;;;11.47;2.00;;;19.30;57.70;;;;;;4875591;28;20198;-77
2021/07/29 01:55:41;;;;;;;5.00;0.90;;;19.30;57.70;;;;;;4851567;28;20253;-73
2021/07/29 01:58:22;;;;;;;14.93;2.53;;;;;;;;;;4856732;28;20188;-73
2021/07/29 02:01:04;;;;;;;12.40;2.13;;;;;;;;;;4855310;28;20534;-72
2021/07/29 02:03:45;;;;;;;5.77;1.03;;;;;;;;;;4851408;28;20183;-73
2021/07/29 02:06:26;;;;;;;8.60;1.57;;;;;;;;;;4841183;28;20188;-74
2021/07/29 02:09:42;;;;;;;10.03;1.80;;;19.20;54.30;;;;;;4855745;28;20612;-73
2021/07/29 02:12:24;;;;;;;12.30;2.20;;;;;;;;;;4840793;28;20193;-72
2021/07/29 02:15:05;;;;;;;10.67;1.90;;;;;;;;;;4856194;28;20188;-74
2021/07/29 02:17:46;;;;;;;6.13;1.17;;;;;;;;;;4849552;28;20194;-74
2021/07/29 02:20:28;;;;;;;7.57;1.40;;;19.20;56.70;;;;;;4848587;28;20184;-73
2021/07/29 02:23:09;;;;;;;10.80;1.90;;;;;;;;;;4856520;28;20667;-73
2021/07/29 02:25:52;;;;;;;5.10;1.00;;;19.00;55.30;;;;;;4856012;28;20673;-74
2021/07/29 02:28:34;;;;;;;18.60;3.27;;;;;;;;;;4856029;28;20189;-74
2021/07/29 02:31:16;;;;;;;6.53;1.27;;;;;;;;;;4855336;28;20188;-74
2021/07/29 02:33:58;;;;;;;13.47;2.27;;;;;;;;;;4849419;28;20559;-74
2021/07/29 02:36:39;;;;;;;7.10;1.30;;;;;;;;;;4849955;28;20180;-75
2021/07/29 02:39:20;;;;;;;6.83;1.37;;;;;;;;;;4854988;28;20184;-75
2021/07/29 02:42:03;;;;;;;12.33;2.23;;;18.90;50.70;;;;;;4856086;28;20183;-75
2021/07/29 02:44:45;;;;;;;11.30;2.07;;;;;;;;;;4851158;28;20661;-75
2021/07/29 02:47:26;;;;;;;5.70;1.10;;;;;;;;;;4855681;28;20185;-75
2021/07/29 02:50:08;;;;;;;15.70;2.90;;;18.90;51.30;;;;;;4854777;28;20188;-75
2021/07/29 02:52:49;;;;;;;3.17;0.73;;;;;;;;;;4856752;28;20191;-75
2021/07/29 02:55:30;;;;;;;5.53;1.10;;;;;;;;;;4874256;28;20218;-75
2021/07/29 02:58:13;;;;;;;8.90;1.60;;;18.90;53.40;;;;;;4874440;28;20648;-78
2021/07/29 03:00:54;;;;;;;5.73;1.13;;;;;;;;;;4872989;28;20202;-76
2021/07/29 03:03:35;;;;;;;4.30;0.83;;;;;;;;;;4875470;28;20477;-75
2021/07/29 03:06:16;;;;;;;7.00;1.30;;;;;;;;;;4874845;28;20688;-75
2021/07/29 03:09:00;;;;;;;9.57;1.70;;;18.90;52.90;;;;;;4874360;28;20210;-75
2021/07/29 03:11:41;;;;;;;10.07;1.90;;;;;;;;;;4874074;28;20648;-75
2021/07/29 03:14:23;;;;;;;12.87;2.33;;;19.00;54.10;;;;;;4871496;28;20186;-75
2021/07/29 03:17:04;;;;;;;9.40;1.73;;;;;;;;;;4872155;28;20644;-75
2021/07/29 03:19:45;;;;;;;6.80;1.30;;;;;;;;;;4868937;28;20537;-75
2021/07/29 03:22:26;;;;;;;7.20;1.40;;;;;;;;;;4859142;28;20231;-75
2021/07/29 03:25:08;;;;;;;11.20;2.07;;;18.90;55.40;;;;;;4874274;28;20206;-76
2021/07/29 03:27:49;;;;;;;4.60;0.90;;;;;;;;;;4875250;28;20191;-79
2021/07/29 03:30:31;;;;;;;6.73;1.33;;;19.00;54.30;;;;;;4873627;28;20185;-75
2021/07/29 03:33:13;;;;;;;6.73;1.20;;;;;;;;;;4874446;28;20686;-75
2021/07/29 03:35:54;;;;;;;7.70;1.43;;;;;;;;;;4874435;28;20528;-75
2021/07/29 03:38:35;;;;;;;20.10;3.40;;;;;;;;;;4874451;28;20213;-75
2021/07/29 03:41:17;;;;;;;7.97;1.43;;;;;;;;;;4874143;28;20210;-76
2021/07/29 03:43:58;;;;;;;10.83;1.97;;;;;;;;;;4874661;28;20185;-75
2021/07/29 03:46:40;;;;;;;7.57;1.43;;;19.10;57.80;;;;;;4868259;28;20248;-75
2021/07/29 03:49:22;;;;;;;9.03;1.67;;;;;;;;;;4873729;28;20194;-75
2021/07/29 03:52:03;;;;;;;16.17;2.90;;;;;;;;;;4873179;28;20222;-75
2021/07/29 03:54:44;;;;;;;10.83;2.00;;;;;;;;;;4863367;28;20226;-75
2021/07/29 03:57:25;;;;;;;7.07;1.30;;;;;;;;;;4874406;28;20187;-79
2021/07/29 04:00:08;;;;;;;13.33;2.40;;;18.90;60.30;;;;;;4873191;28;20185;-81
2021/07/29 04:02:50;;;;;;;4.63;0.90;;;19.40;62.50;;;;;;4869162;28;20197;-77
2021/07/29 04:05:31;;;;;;;5.00;0.97;;;;;;;;;;4874061;28;20210;-75
2021/07/29 04:08:12;;;;;;;6.83;1.37;;;;;;;;;;4874344;28;20226;-75
2021/07/29 04:10:57;;;;;;;3.93;0.70;;;;;;;;;;4874597;28;20186;-83
2021/07/29 04:13:38;;;;;;;5.80;1.20;;;;;;;;;;4852671;28;20183;-84
2021/07/29 04:16:19;;;;;;;8.40;1.50;;;;;;;;;;4875709;28;20791;-76
2021/07/29 04:19:02;;;;;;;10.80;1.87;;;19.60;75.10;;;;;;4875179;28;20195;-83
2021/07/29 04:21:43;;;;;;;6.40;1.20;;;;;;;;;;4875288;28;20261;-79
2021/07/29 04:24:26;;;;;;;8.63;1.53;;;;;;;;;;4873852;28;20899;-82
2021/07/29 04:27:07;;;;;;;10.60;1.90;;;;;;;;;;4874711;28;20178;-79
2021/07/29 04:29:48;;;;;;;4.77;1.00;;;;;;;;;;4873825;28;20176;-85
2021/07/29 04:32:34;;;;;;;8.30;1.50;;;;;;;;;;4870618;28;20183;-84
2021/07/29 04:35:17;;;;;;;6.03;1.20;;;19.70;38.90;;;;;;4873794;28;20194;-84
2021/07/29 04:37:58;;;;;;;11.70;2.07;;;;;;;;;;4875100;28;20182;-83
2021/07/29 04:40:39;;;;;;;4.80;0.90;;;;;;;;;;4868410;28;20181;-82
2021/07/29 04:43:20;;;;;;;10.10;1.80;;;;;;;;;;4874146;28;20178;-83
2021/07/29 04:46:02;;;;;;;12.47;2.30;;;19.30;98.40;;;;;;4872092;28;20237;-79
2021/07/29 04:48:44;;;;;;;18.03;3.20;;;;;;;;;;4868637;28;20641;-76
2021/07/29 04:51:26;;;;;;;7.53;1.40;;;19.20;88.00;;;;;;4874281;28;20658;-75
2021/07/29 04:54:07;;;;;;;18.07;3.17;;;;;;;;;;4867519;28;20253;-75
2021/07/29 04:56:49;;;;;;;3.23;0.60;;;;;;;;;;4873200;28;20610;-75
2021/07/29 04:59:30;;;;;;;4.00;0.80;;;;;;;;;;4865386;28;20178;-75
2021/07/29 05:02:11;;;;;;;9.83;1.87;;;;;;;;;;4872803;28;20949;-75
2021/07/29 05:04:52;;;;;;;3.90;0.77;;;;;;;;;;4877316;28;20260;-76
2021/07/29 05:07:34;;;;;;;5.83;1.03;;;19.30;99.90;;;;;;4853691;28;20289;-75
2021/07/29 05:10:16;;;;;;;9.40;1.70;;;;;;;;;;4876577;28;20190;-77
2021/07/29 05:12:57;;;;;;;10.10;1.90;;;;;;;;;;4874155;28;20523;-76
2021/07/29 05:15:38;;;;;;;6.40;1.17;;;;;;;;;;4870010;28;20181;-79
2021/07/29 05:18:19;;;;;;;7.73;1.50;;;;;;;;;;4875897;28;20178;-75
2021/07/29 05:21:02;;;;;;;11.40;2.03;;;19.70;77.90;;;;;;4877007;28;20174;-77
2021/07/29 05:23:44;;;;;;;5.60;1.13;;;19.80;99.90;;;;;;4871957;28;20174;-75
2021/07/29 05:26:25;;;;;;;7.13;1.33;;;;;;;;;;4873681;28;20211;-71
2021/07/29 05:29:06;;;;;;;12.67;2.30;;;;;;;;;;4865118;28;20182;-75
2021/07/29 05:31:47;;;;;;;7.73;1.43;;;;;;;;;;4874637;28;20179;-77
2021/07/29 05:34:29;;;;;;;6.87;1.27;;;;;;;;;;4876997;28;20190;-79
2021/07/29 05:37:10;;;;;;;12.53;2.30;;;;;;;;;;4876215;28;20649;-85
2021/07/29 05:39:52;;;;;;;8.70;1.63;;;20.20;95.10;;;;;;4875210;28;20190;-82
2021/07/29 05:42:33;;;;;;;6.03;1.10;;;;;;;;;;4870831;28;20742;-82
2021/07/29 05:45:14;;;;;;;7.17;1.33;;;;;;;;;;4875738;28;20316;-76
2021/07/29 05:47:56;;;;;;;8.20;1.57;;;;;;;;;;4860912;28;20222;-74
2021/07/29 05:50:37;;;;;;;10.87;1.97;;;;;;;;;;4874786;28;20187;-84
2021/07/29 05:53:18;;;;;;;8.03;1.50;;;;;;;;;;4874779;28;20210;-77
2021/07/29 05:56:00;;;;;;;11.57;2.03;;;20.20;62.70;;;;;;4858076;28;20195;-81
2021/07/29 05:58:42;;;;;;;17.80;3.23;;;;;;;;;;4857617;28;20641;-73
2021/07/29 06:01:23;;;;;;;7.40;1.40;;;;;;;;;;4855864;28;20188;-74
2021/07/29 06:04:04;;;;;;;11.30;2.03;;;;;;;;;;4857890;28;20513;-81
2021/07/29 06:06:46;;;;;;;6.40;1.10;;;;;;;;;;4857358;28;20219;-84
2021/07/29 06:09:27;;;;;;;6.20;1.10;;;;;;;;;;4857573;28;20191;-82
2021/07/29 06:12:09;;;;;;;11.60;2.00;;;20.30;68.50;;;;;;4873061;28;20188;-81
2021/07/29 06:14:51;;;;;;;5.27;1.03;;;;;;;;;;4876550;28;20179;-83
2021/07/29 06:17:34;;;;;;;6.13;1.13;;;;;;;;;;4876768;28;20739;-77
2021/07/29 06:20:15;;;;;;;8.27;1.50;;;;;;;;;;4876414;28;20184;-75
2021/07/29 06:22:57;;;;;;;8.87;1.63;;;;;;;;;;4873902;28;20265;-84
2021/07/29 06:25:40;;;;;;;5.37;1.03;;;20.10;72.50;;;;;;4875097;28;20195;-84
2021/07/29 06:28:24;;;;;;;8.13;1.53;;;20.10;67.50;;;;;;4875744;28;20677;-81
2021/07/29 06:31:05;;;;;;;8.83;1.63;;;;;;;;;;4875849;28;20198;-77
2021/07/29 06:33:47;;;;;;;7.37;1.23;;;;;;;;;;4870455;28;20183;-84
2021/07/29 06:36:28;;;;;;;7.70;1.43;;;;;;;;;;4867937;28;20178;-82
2021/07/29 06:39:09;;;;;;;8.60;1.70;;;;;;;;;;4874059;28;20340;-76
2021/07/29 06:41:50;;;;;;;5.83;1.10;;;;;;;;;;4860023;28;20641;-76
2021/07/29 06:44:32;;;;;;;11.17;2.00;;;20.30;39.70;;;;;;4859411;28;20182;-81
2021/07/29 06:47:14;;;;;;;7.67;1.40;;;20.20;99.90;;;;;;4875561;28;20205;-76
2021/07/29 06:49:55;;;;;;;6.97;1.27;;;;;;;;;;4874377;28;20657;-80
2021/07/29 06:52:37;;;;;;;7.67;1.40;;;;;;;;;;4870171;28;20645;-81
2021/07/29 06:55:18;;;;;;;8.53;1.53;;;;;;;;;;4866255;28;20218;-83
2021/07/29 06:57:59;;;;;;;14.40;2.50;;;;;;;;;;4875360;28;20182;-76
2021/07/29 07:00:41;;;;;;;37.90;6.53;;;20.50;60.50;;;;;;4867821;28;20200;-77
2021/07/29 07:03:23;;;;;;;6.30;1.13;;;;;;;;;;4875868;28;20692;-82
2021/07/29 07:06:04;;;;;;;10.60;1.93;;;;;;;;;;4873910;28;20187;-75
2021/07/29 07:08:45;;;;;;;15.57;2.67;;;;;;;;;;4871570;28;20382;-73
2021/07/29 07:11:26;;;;;;;8.80;1.57;;;;;;;;;;4875088;28;20202;-73
2021/07/29 07:14:09;;;;;;;13.70;2.33;;;;;;;;;;4868299;28;20184;-73
2021/07/29 07:16:51;;;;;;;3.10;0.60;;;21.60;79.30;;;;;;4855754;28;20186;-73
2021/07/29 07:19:32;;;;;;;7.53;1.33;;;;;;;;;;4874204;28;20216;-75
2021/07/29 07:22:14;;;;;;;4.47;0.90;;;;;;;;;;4860756;28;20855;-74
2021/07/29 07:24:55;;;;;;;7.73;1.33;;;;;;;;;;4874646;28;20188;-73
2021/07/29 07:27:36;;;;;;;7.30;1.20;;;;;;;;;;4873259;28;20209;-76
2021/07/29 07:30:17;;;;;;;7.23;1.20;;;;;;;;;;4874470;28;20644;-76
2021/07/29 07:33:00;;;;;;;11.43;1.93;;;23.00;66.70;;;;;;4875309;28;20263;-75
2021/07/29 07:35:41;;;;;;;10.57;1.77;;;;;;;;;;4875275;28;20723;-75
2021/07/29 07:38:22;;;;;;;7.40;1.37;;;;;;;;;;4874670;28;20534;-75
2021/07/29 07:41:07;;;;;;;9.97;1.73;;;22.80;72.10;;;;;;4874949;28;20182;-77
2021/07/29 07:43:48;;;;;;;5.70;1.03;;;;;;;;;;4875301;28;20917;-76
2021/07/29 07:46:29;;;;;;;8.00;1.37;;;;;;;;;;4874819;28;20569;-75
2021/07/29 07:49:12;;;;;;;12.23;2.00;;;23.40;75.80;;;;;;4873700;28;20197;-78
2021/07/29 07:51:53;;;;;;;8.33;1.43;;;;;;;;;;4874803;28;20271;-76
2021/07/29 07:54:34;;;;;;;15.27;2.57;;;;;;;;;;4879560;28;20258;-76
2021/07/29 07:57:15;;;;;;;7.50;1.33;;;;;;;;;;4888170;28;20200;-73
2021/07/29 07:59:58;;;;;;;20.37;3.23;;;;;;;;;;4872307;28;20189;-74
2021/07/29 08:02:39;;;;;;;10.07;1.70;;;;;;;;;;4869001;28;20534;-76
2021/07/29 08:05:22;;;;;;;5.33;1.00;;;24.70;31.40;;;;;;4875092;28;20177;-81
2021/07/29 08:08:07;;;;;;;16.60;2.60;;;;;;;;;;4874561;28;20215;-76
2021/07/29 08:10:51;;;;;;;5.43;1.00;;;25.00;99.90;;;;;;4873976;28;20180;-78
2021/07/29 08:13:32;;;;;;;6.20;1.10;;;;;;;;;;4875282;28;20180;-73
2021/07/29 08:16:14;;;;;;;6.03;1.07;;;;;;;;;;4874640;28;20227;-73
2021/07/29 08:18:55;;;;;;;7.27;1.23;;;;;;;;;;4874666;28;20219;-74
2021/07/29 08:21:37;;;;;;;12.17;2.03;;;24.90;32.70;;;;;;4868811;28;20286;-74
2021/07/29 08:24:19;;;;;;;7.70;1.33;;;;;;;;;;4875005;28;20192;-73
2021/07/29 08:27:01;;;;;;;13.23;2.17;;;;;;;;;;4875334;28;20224;-74
2021/07/29 08:29:42;;;;;;;6.77;1.20;;;;;;;;;;4859705;28;20177;-85
2021/07/29 08:32:24;;;;;;;12.17;1.97;;;;;;;;;;4853448;28;20668;-78
2021/07/29 08:35:05;;;;;;;10.40;1.80;;;;;;;;;;4855676;28;20193;-75
2021/07/29 08:37:50;;;;;;;8.10;1.33;;;24.80;39.70;;;;;;4858687;28;20181;-75
2021/07/29 08:40:32;;;;;;;9.17;1.60;;;;;;;;;;4859338;28;20269;-78
2021/07/29 08:43:14;;;;;;;10.30;1.80;;;;;;;;;;4858805;28;20181;-84
2021/07/29 08:45:55;;;;;;;8.83;1.53;;;;;;;;;;4859143;28;20291;-86
2021/07/29 08:48:36;;;;;;;20.13;3.30;;;;;;;;;;4858963;28;20211;-82
2021/07/29 08:51:19;;;;;;;6.47;1.10;;;25.20;99.90;;;;;;4860213;28;20183;-77
2021/07/29 08:54:07;;;;;;;16.10;2.63;;;25.10;99.90;;;;;;4873655;28;20216;-73
2021/07/29 08:56:49;;;;;;;3.83;0.70;;;;;;;;;;4897693;28;20257;-75
2021/07/29 08:59:30;;;;;;;4.00;0.73;;;;;;;;;;4897396;28;20185;-75
2021/07/29 09:02:23;;;;;;;18.80;3.00;;;25.30;99.90;;;;;;4896194;28;20197;-74
2021/07/29 09:05:15;;;;;;;9.97;1.67;;;25.50;99.90;;;;;;4897056;28;20184;-74
2021/07/29 09:08:03;;;;;;;9.13;1.50;;;25.70;99.90;;;;;;4897984;28;20217;-73
2021/07/29 09:10:46;;;;;;;9.63;1.57;;;25.90;99.90;;;;;;4897583;28;20178;-75
2021/07/29 09:13:27;;;;;;;7.87;1.27;;;;;;;;;;4897440;28;20174;-75
2021/07/29 09:16:12;;;;;;;11.43;1.83;;;26.50;99.90;;;;;;4896860;28;20180;-85
2021/07/29 09:18:53;;;;;;;6.40;1.10;;;;;;;;;;4880027;28;20193;-78
2021/07/29 09:21:34;;;;;;;8.63;1.37;;;;;;;;;;4877627;28;20630;-79
2021/07/29 09:24:15;;;;;;;7.50;1.20;;;;;;;;;;4878211;28;20189;-77
2021/07/29 09:26:58;;;;;;;11.87;1.80;;;30.00;99.90;;;;;;4876892;28;20178;-74
2021/07/29 09:29:39;;;;;;;10.77;1.60;;;;;;;;;;4877237;28;20213;-74
2021/07/29 09:32:22;;;;;;;8.80;1.30;;;;;;;;;;4877536;28;20181;-74
2021/07/29 09:35:04;;;;;;;14.98;2.13;;;;;;;;;;4876956;28;20264;-75
2021/07/29 09:37:52;;;;;;;10.65;1.55;;;36.60;86.20;;;;;;4876914;28;20185;-75
2021/07/29 09:40:51;;;;;;;15.00;2.08;;;36.60;79.20;;;;;;4876585;28;20193;-75
2021/07/29 09:43:34;;;;;;;13.77;1.90;;;35.90;90.90;;;;;;4877053;28;20674;-75
2021/07/29 09:46:20;;;;;;;10.48;1.48;;;33.20;79.20;;;;;;4876895;28;20225;-75
2021/07/29 09:49:02;;;;;;;20.02;2.75;;;34.90;82.40;;;;;;4874774;28;20209;-73
2021/07/29 09:51:43;;;;;;;11.70;1.75;;;;;;;;;;4877445;28;20185;-76
2021/07/29 09:54:25;;;;;;;10.25;1.50;;;38.00;75.00;;;;;;4887152;28;20311;-76
2021/07/29 09:57:07;;;;;;;17.85;2.45;;;;;;;;;;4896375;28;20173;-75
2021/07/29 09:59:49;;;;;;;10.68;1.48;;;41.20;42.30;;;;;;4879219;28;20956;-76
2021/07/29 10:02:31;;;;;;;11.60;1.58;;;;;;;;;;4875361;28;20186;-78
2021/07/29 10:05:14;;;;;;;14.52;2.03;;;43.00;99.90;;;;;;4876397;28;20208;-76
2021/07/29 10:07:59;;;;;;;13.18;1.70;;;43.20;34.70;;;;;;4876537;28;20216;-80
2021/07/29 10:10:44;;;;;;;12.30;1.70;;;;;;;;;;4860109;28;20189;-74
2021/07/29 10:13:36;;;;;;;12.73;1.75;;;44.00;39.10;;;;;;4877045;28;20185;-76
2021/07/29 10:16:39;;;;;;;13.63;1.88;;;44.80;90.50;;;;;;4876147;28;20547;-74
2021/07/29 10:19:21;;;;;;;9.35;1.33;;;;;;;;;;4876322;28;20181;-75
2021/07/29 10:22:22;;;;;;;20.98;2.80;;;45.00;90.50;;;;;;4875812;28;20173;-76
2021/07/29 10:25:03;;;;;;;23.67;3.03;;;;;;;;;;4875218;28;20196;-75
2021/07/29 10:51:11;;;;;;;479.17;426.10;;;41.40;74.70;;;;;;4910070;27;20826;-75
2021/07/29 10:53:55;;;;;;;258.67;242.25;;;43.20;99.90;;;;;;4911100;28;20598;-76
2021/07/29 10:56:37;;;;;;;108.68;100.30;;;;;;;;;;4910974;28;20183;-78
2021/07/29 10:59:19;;;;;;;84.95;78.00;;;45.30;99.90;;;;;;4911309;28;20191;-76
2021/07/29 11:02:02;;;;;;;56.78;50.75;;;;;;;;;;4908239;28;20302;-76
2021/07/29 11:04:53;;;;;;;46.50;31.50;;;46.00;76.70;;;;;;4909754;28;20215;-77
2021/07/29 11:07:40;;;;;;;34.90;24.02;;;46.50;84.10;;;;;;4896142;28;20201;-78
2021/07/29 11:10:24;;;;;;;36.00;18.92;;;46.40;85.00;;;;;;4904587;28;20575;-77
2021/07/29 11:13:06;;;;;;;27.08;17.48;;;46.30;99.90;;;;;;4903129;28;20193;-78
2021/07/29 11:15:47;;;;;;;25.30;23.17;;;;;;;;;;4891791;28;20181;-78
2021/07/29 11:18:28;;;;;;;23.85;17.95;;;;;;;;;;4891916;28;20534;-90
2021/07/29 11:21:14;;;;;;;31.23;11.32;;;48.50;93.60;;;;;;4891632;28;20181;-77
2021/07/29 11:23:57;;;;;;;15.02;7.97;;;49.40;30.80;;;;;;4891978;28;20216;-85
2021/07/29 11:26:44;;;;;;;54.65;11.93;;;50.10;83.90;;;;;;4890856;28;20216;-82
2021/07/29 11:29:25;;;;;;;20.80;6.78;;;;;;;;;;4891142;28;20560;-84
2021/07/29 11:32:06;;;;;;;32.10;7.80;;;;;;;;;;4890338;28;20193;-84
2021/07/29 11:34:47;;;;;;;18.63;8.65;;;;;;;;;;4891026;28;20196;-85
2021/07/29 11:37:34;;;;;;;24.10;9.82;;;51.50;94.90;;;;;;4890199;28;20192;-82
2021/07/29 11:40:21;;;;;;;24.88;8.10;;;50.10;99.90;;;;;;4874256;28;20682;-86
2021/07/29 11:43:03;;;;;;;18.17;12.02;;;;;;;;;;4871516;28;20300;-85
2021/07/29 11:45:44;;;;;;;21.52;19.35;;;;;;;;;;4872196;28;20216;-81
2021/07/29 11:48:25;;;;;;;22.50;19.45;;;;;;;;;;4870145;28;20193;-76
2021/07/29 11:51:13;;;;;;;36.33;33.17;;;49.90;92.00;;;;;;4862670;28;20181;-85
2021/07/29 11:53:55;;;;;;;48.50;44.28;;;;;;;;;;4858379;28;20185;-75
2021/07/29 11:56:43;;;;;;;55.17;14.52;;;48.30;99.90;;;;;;4858078;28;20198;-76
2021/07/29 11:59:25;;;;;;;29.02;25.38;;;;;;;;;;4858983;28;20599;-84
2021/07/29 12:02:07;;;;;;;40.65;36.28;;;48.30;99.90;;;;;;4863104;28;20567;-82
2021/07/29 12:04:48;;;;;;;55.15;49.67;;;;;;;;;;4875751;28;20193;-83
2021/07/29 12:07:30;;;;;;;58.38;53.55;;;;;;;;;;4877715;28;20189;-85
2021/07/29 12:10:11;;;;;;;75.05;69.45;;;50.70;94.80;;;;;;4876364;28;20221;-85
2021/07/29 12:12:55;;;;;;;92.07;86.63;;;50.60;94.70;;;;;;4877893;28;20539;-86
2021/07/29 12:15:37;;;;;;;37.63;34.25;;;;;;;;;;4876661;28;20212;-83
2021/07/29 12:18:19;;;;;;;77.40;71.32;;;47.50;93.20;;;;;;4876715;28;20193;-85
2021/07/29 12:21:01;;;;;;;78.60;72.75;;;;;;;;;;4877806;28;20537;-73
2021/07/29 12:23:50;;;;;;;79.18;74.45;;;48.70;91.70;;;;;;4877728;28;20189;-82
2021/07/29 12:26:31;;;;;;;99.28;89.70;;;;;;;;;;4875766;28;20189;-78
2021/07/29 12:29:43;;;;;;;106.40;99.18;;;50.20;86.10;;;;;;4876910;28;20185;-78
2021/07/29 12:32:26;;;;;;;82.18;76.93;;;50.10;88.80;;;;;;4877918;28;20197;-81
2021/07/29 12:35:08;;;;;;;57.22;51.97;;;49.10;92.00;;;;;;4876917;28;20181;-74
2021/07/29 12:37:58;;;;;;;37.80;34.42;;;47.20;93.50;;;;;;4875632;28;20193;-74
2021/07/29 12:40:40;;;;;;;26.05;22.75;;;;;;;;;;4875683;28;20698;-76
2021/07/29 12:43:23;;;;;;;30.92;12.57;;;43.40;99.90;;;;;;4876155;28;20595;-75
2021/07/29 12:46:07;;;;;;;31.20;21.40;;;42.80;99.90;;;;;;4876271;28;20220;-74
2021/07/29 12:48:58;;;;;;;28.52;23.25;;;43.60;30.70;;;;;;4875809;28;20217;-75
2021/07/29 12:51:41;;;;;;;31.33;28.02;;;44.70;30.70;;;;;;4873595;28;20209;-73
2021/07/29 12:54:23;;;;;;;41.25;37.78;;;45.90;35.40;;;;;;4876880;28;20193;-73
2021/07/29 12:57:07;;;;;;;31.45;28.67;;;47.20;99.90;;;;;;4876286;28;20666;-76
2021/07/29 12:59:48;;;;;;;47.03;42.05;;;;;;;;;;4875446;28;20300;-75
2021/07/29 13:02:31;;;;;;;54.83;50.30;;;47.90;99.90;;;;;;4868123;28;20229;-76
2021/07/29 13:05:14;;;;;;;40.15;36.00;;;;;;;;;;4876417;28;20181;-76
2021/07/29 13:07:55;;;;;;;18.45;14.85;;;;;;;;;;4876200;28;20193;-75
2021/07/29 13:10:36;;;;;;;31.67;28.80;;;;;;;;;;4875534;28;20520;-74
2021/07/29 13:13:22;;;;;;;32.00;20.90;;;;;;;;;;4876602;28;20729;-76
2021/07/29 13:16:04;;;;;;;19.10;7.32;;;;;;;;;;4875941;28;20228;-74
2021/07/29 13:18:46;;;;;;;16.88;4.60;;;43.50;74.40;;;;;;4876393;28;20220;-74
2021/07/29 13:21:27;;;;;;;16.13;2.15;;;;;;;;;;4876152;28;20193;-77
2021/07/29 13:24:08;;;;;;;24.17;3.10;;;;;;;;;;4876539;28;20196;-74
2021/07/29 13:26:49;;;;;;;16.00;2.10;;;;;;;;;;4875960;28;20193;-74
2021/07/29 13:29:30;;;;;;;18.95;2.40;;;;;;;;;;4876557;28;20201;-74
2021/07/29 13:32:12;;;;;;;23.92;3.00;;;;;;;;;;4875400;28;20193;-75
2021/07/29 13:34:54;;;;;;;16.73;2.13;;;38.60;99.90;;;;;;4875297;28;20193;-75
2021/07/29 13:37:35;;;;;;;18.23;2.38;;;;;;;;;;4875840;28;20225;-75
2021/07/29 13:40:16;;;;;;;20.20;2.55;;;;;;;;;;4875956;28;20229;-75
2021/07/29 13:42:57;;;;;;;11.07;1.42;;;;;;;;;;4875373;28;20189;-75
2021/07/29 13:45:39;;;;;;;14.00;1.85;;;;;;;;;;4875960;28;20282;-75
2021/07/29 13:48:20;;;;;;;28.23;3.50;;;;;;;;;;4875804;28;20189;-79
2021/07/29 13:51:02;;;;;;;14.77;1.88;;;41.50;99.90;;;;;;4876367;28;20185;-74
2021/07/29 13:53:43;;;;;;;8.02;1.20;;;;;;;;;;4875147;28;20235;-83
2021/07/29 13:56:24;;;;;;;11.70;1.55;;;;;;;;;;4875065;28;20280;-73
2021/07/29 13:59:06;;;;;;;17.35;2.25;;;;;;;;;;4876087;28;20651;-73
2021/07/29 14:01:47;;;;;;;17.83;2.30;;;;;;;;;;4872921;28;20221;-81
2021/07/29 14:04:28;;;;;;;15.23;1.95;;;;;;;;;;4874308;28;20189;-77
2021/07/29 14:07:10;;;;;;;16.85;2.20;;;38.40;91.70;;;;;;4874443;28;20197;-73
2021/07/29 14:09:53;;;;;;;13.82;1.85;;;;;;;;;;4876014;28;20193;-85
2021/07/29 14:12:34;;;;;;;13.65;1.75;;;37.40;99.90;;;;;;4856269;28;20651;-75
2021/07/29 14:15:16;;;;;;;16.73;2.03;;;;;;;;;;4855338;28;20186;-80
2021/07/29 14:17:59;;;;;;;18.63;2.42;;;;;;;;;;4855829;28;20651;-81
2021/07/29 14:20:43;;;;;;;15.05;1.92;;;;;;;;;;4856423;28;20221;-80
2021/07/29 14:23:26;;;;;;;10.32;1.27;;;34.80;99.90;;;;;;4856211;28;20804;-80
2021/07/29 14:26:07;;;;;;;24.60;3.03;;;;;;;;;;4854932;28;20662;-80
2021/07/29 14:28:48;;;;;;;11.88;1.48;;;;;;;;;;4856689;28;20186;-83
2021/07/29 14:31:30;;;;;;;15.13;1.92;;;;;;;;;;4856837;28;20189;-79
2021/07/29 14:34:11;;;;;;;23.83;2.85;;;;;;;;;;4856252;28;20194;-83
2021/07/29 14:36:52;;;;;;;13.18;1.65;;;;;;;;;;4855119;28;20639;-78
2021/07/29 14:39:34;;;;;;;15.23;1.90;;;31.80;99.90;;;;;;4856125;28;20209;-87
2021/07/29 14:42:16;;;;;;;21.97;2.70;;;;;;;;;;4856267;28;20272;-83
2021/07/29 14:45:00;;;;;;;11.97;1.57;;;;;;;;;;4871595;28;20204;-75
2021/07/29 14:50:41;;;;;;;12.93;1.70;;;30.70;99.90;;;;;;4875499;28;20233;-83
2021/07/29 14:53:23;;;;;;;18.37;2.30;;;;;;;;;;4875008;28;20662;-81
2021/07/29 14:56:15;;;;;;;12.77;1.67;;;30.00;99.90;;;;;;4875722;28;20282;-76
2021/07/29 16:08:16;;;;;;;36.07;4.53;;;;;;;;;;4875746;28;20189;-73
2021/07/29 16:10:58;;;;;;;15.80;2.10;;;;;;;;;;4876965;28;20197;-73
2021/07/29 16:13:42;;;;;;;17.07;2.23;;;;;;;;;;4876105;28;20204;-74
2021/07/29 16:16:23;;;;;;;22.37;2.87;;;;;;;;;;4875993;28;20192;-73
2021/07/29 16:19:06;;;;;;;10.00;1.37;;;27.00;99.90;;;;;;4876685;28;20197;-74
2021/07/29 16:21:48;;;;;;;12.53;1.73;;;;;;;;;;4876240;28;20220;-73
2021/07/29 16:24:29;;;;;;;17.57;2.30;;;;;;;;;;4875569;28;20220;-71
2021/07/29 16:27:11;;;;;;;22.50;2.83;;;;;;;;;;4875598;28;20185;-75
2021/07/29 16:29:52;;;;;;;11.87;1.57;;;;;;;;;;4876692;28;20216;-72
2021/07/29 16:32:33;;;;;;;18.30;2.50;;;;;;;;;;4876654;28;20634;-73
2021/07/29 16:35:15;;;;;;;23.60;3.03;;;26.80;34.70;;;;;;4875355;28;20192;-72
2021/07/29 16:37:56;;;;;;;19.37;2.53;;;;;;;;;;4875291;28;20189;-73
2021/07/29 16:40:37;;;;;;;15.47;2.07;;;;;;;;;;4875389;28;20224;-73
2021/07/29 16:43:18;;;;;;;18.87;2.47;;;;;;;;;;4876336;28;20189;-72
2021/07/29 16:46:00;;;;;;;22.70;3.03;;;;;;;;;;4875218;28;20232;-75
2021/07/29 16:48:41;;;;;;;15.70;2.10;;;;;;;;;;4875666;28;20650;-74
2021/07/29 16:51:23;;;;;;;21.03;2.77;;;26.90;99.90;;;;;;4876210;28;20212;-76
2021/07/29 16:54:05;;;;;;;12.60;1.80;;;;;;;;;;4875852;28;20658;-73
2021/07/29 16:56:46;;;;;;;24.37;3.17;;;;;;;;;;4872125;28;20654;-74
2021/07/29 16:59:27;;;;;;;13.50;1.80;;;;;;;;;;4876456;28;20528;-78